Details From LFMN - Nice
To LIMZ - LEVALDIGI
Flight Number -
Tags None
Created
Modified
Stats Distance 64 nm / 118 km
Max Altitude 10,300 ft / 3,139 m
Waypoints 6
Social Downloads 1
Likes 0
Share VATSIM

Download

Looking for another format? Having issues loading an existing format? Contact us
Advertisement - Login to hide

Notes

None

Route

LFMN +43.801_+007.559 +43.987_+007.548 +44.097_+007.592 +44.318_+007.501 LIMZ

ID Type Via Altitude Latitude Longitude Leg Dist Tot Dist Heading (true) Name
O LFMN APT - 0 ft / 0 m 43.66563˚ 7.21487˚ - 0 nm - -
+43.801_+007.559 LATLON - 10,300 ft / 3,139 m 43.80084˚ 7.55859˚ 16 nm 16 nm 61° / 62° -
+43.987_+007.548 LATLON - 10,300 ft / 3,139 m 43.98689˚ 7.54761˚ 11 nm 28 nm 358° / 358° -
+44.097_+007.592 LATLON - 10,300 ft / 3,139 m 44.09745˚ 7.59155˚ 6 nm 35 nm 16° / 16° -
+44.318_+007.501 LATLON - 10,300 ft / 3,139 m 44.31795˚ 7.50092˚ 13 nm 48 nm 344° / 344° -
O LIMZ APT - 10,300 ft / 3,139 m 44.54949˚ 7.62364˚ 14 nm 63 nm 21° / 21° LEVALDIGI

Altitude Profile

Advertisement - Login to hide

LFMN

Details ICAO LFMN (NCE)
Name Nice/Cote d'Azur
Region France
Timezone Unknown (UTC+0.0)
Stats Elevation 12 ft / 4 m (AMSL)
Location 43.657981° 7.215362°
Runways 2
Magnetic Variation 2.017° E

METAR

LFMN 162230Z 35008KT CAVOK 07/M06 Q1014 NOSIG

Decode

TAF

TAF TAF LFMN 162000Z 1621/1803 33010KT CAVOK BECMG 1711/1713 24010KT BECMG 1716/1718 33010KT

Decode

Departure Runways

ID Width Length Bearing (true) Bearing (mag) Surface Threshold Offset Overrun Length
04L 148 ft / 45 m 8,427 ft / 2,569 m 44.85° 42.83° Asphalt 0 ft / 0 m 131 ft / 40 m
04R 148 ft / 45 m 9,720 ft / 2,963 m 44.60° 42.58° Asphalt 0 ft / 0 m 427 ft / 130 m
22L 148 ft / 45 m 9,720 ft / 2,963 m 224.62° 222.60° Asphalt 0 ft / 0 m 525 ft / 160 m
22R 148 ft / 45 m 8,427 ft / 2,569 m 224.87° 222.85° Asphalt 0 ft / 0 m 492 ft / 150 m

LIMZ

Details ICAO LIMZ (CUF)
Name LEVALDIGI
Region Italy
Timezone Europe/Rome (UTC+1.0)
Stats Elevation 1,267 ft / 386 m (AMSL)
Location 44.547603° 7.623322°
Runways 1
Magnetic Variation 2.114° E

METAR

Not found

TAF

TAF LIMZ 161700Z 1618/1718 VRB05KT CAVOK

Decode

Destination Runways

ID Width Length Bearing (true) Bearing (mag) Surface Threshold Offset Overrun Length
03 148 ft / 45 m 6,903 ft / 2,104 m 32.49° 30.38° Asphalt 0 ft / 0 m 696 ft / 212 m
21 148 ft / 45 m 6,903 ft / 2,104 m 212.50° 210.39° Asphalt 0 ft / 0 m 581 ft / 177 m

Approach Navaids

Runway Type Ident Frequency Range Bearing (true) Bearing (mag) Slope Elevation
21 Localiser LEV 110.95 MHz 18 nm / 33 km 212.50° 210.38° - 1,267 ft / 386 m (AMSL)
21 Glidescope LEV 110.95 MHz 10 nm / 19 km 212.50° 210.38° 3.00° 1,267 ft / 386 m (AMSL)

Popular Alternatives